Time;durP1;ratioP1;P1;durP2;ratioP2;P2;SDS_P1;SDS_P2;PMS_P1;PMS_P2;Temp;Humidity;BMP_temperature;BMP_pressure;BME280_temperature;BME280_humidity;BME280_pressure;Samples;Min_cycle;Max_cycle;Signal;HPM_P1;HPM_P2
2021/01/09 00:00:16;;;;;;;1.00;1.00;;;;;;;21.44;38.17;101427.25;5018528;28;20184;-76
2021/01/09 00:02:42;;;;;;;0.90;0.90;;;;;;;21.45;37.94;101425.38;5018549;28;20189;-65
2021/01/09 00:05:09;;;;;;;0.93;0.93;;;;;;;21.46;37.91;101429.78;5034490;28;20222;-65
2021/01/09 00:07:36;;;;;;;1.00;1.00;;;;;;;21.46;38.07;101432.53;5018158;28;20267;-64
2021/01/09 00:10:07;;;;;;;1.00;1.00;;;;;;;21.49;38.01;101436.78;5001774;28;20192;-64
2021/01/09 00:12:37;;;;;;;0.90;0.90;;;;;;;21.47;37.71;101434.22;5018718;28;20180;-65
2021/01/09 00:15:04;;;;;;;0.83;0.83;;;;;;;21.46;37.90;101432.53;5018370;28;20271;-64
2021/01/09 00:17:30;;;;;;;0.80;0.80;;;;;;;21.42;37.72;101434.75;5018101;28;20202;-76
2021/01/09 00:19:56;;;;;;;1.30;1.20;;;;;;;21.42;37.72;101425.72;5034575;28;20180;-76
2021/01/09 00:22:23;;;;;;;1.00;1.00;;;;;;;21.39;37.60;101436.94;5051922;28;20185;-76
2021/01/09 00:24:49;;;;;;;0.90;0.90;;;;;;;21.37;37.77;101439.00;5001620;28;20204;-76
2021/01/09 00:27:15;;;;;;;1.00;1.00;;;;;;;21.36;37.75;101431.84;5018038;28;20654;-76
2021/01/09 00:29:41;;;;;;;1.20;1.10;;;;;;;21.35;37.58;101441.03;5051953;28;20291;-76
2021/01/09 00:32:07;;;;;;;1.10;1.10;;;;;;;21.31;37.53;101431.50;5033787;28;20192;-76
2021/01/09 00:34:34;;;;;;;0.90;0.90;;;;;;;21.30;37.68;101430.66;5034261;28;20204;-76
2021/01/09 00:37:00;;;;;;;0.90;0.90;;;;;;;21.30;37.76;101427.09;5018007;28;20190;-76
2021/01/09 00:39:28;;;;;;;1.03;1.03;;;;;;;21.30;37.70;101432.53;5034227;28;20670;-65
2021/01/09 00:41:54;;;;;;;1.20;1.00;;;;;;;21.30;38.10;101432.53;5018366;28;20194;-65
2021/01/09 00:44:20;;;;;;;1.00;1.00;;;;;;;21.31;38.20;101428.78;5033897;28;20204;-65
2021/01/09 00:46:46;;;;;;;1.13;1.10;;;;;;;21.32;38.23;101436.78;5034039;28;20200;-65
2021/01/09 00:49:12;;;;;;;1.10;1.10;;;;;;;21.34;38.02;101444.78;5034093;28;20233;-65
2021/01/09 00:51:38;;;;;;;1.17;1.10;;;;;;;21.36;38.05;101442.75;5034080;28;20521;-65
2021/01/09 00:54:04;;;;;;;1.00;1.00;;;;;;;21.39;38.27;101447.84;5051293;28;20609;-64
2021/01/09 00:56:30;;;;;;;0.87;0.87;;;;;;;21.39;37.96;101448.69;5034003;28;20238;-64
2021/01/09 00:58:56;;;;;;;1.13;1.03;;;;;;;21.42;37.87;101453.81;5034047;28;20177;-64
2021/01/09 01:01:23;;;;;;;0.93;0.93;;;;;;;21.44;38.25;101453.63;5033996;28;20184;-67
2021/01/09 01:03:49;;;;;;;0.90;0.90;;;;;;;21.44;37.90;101457.22;5051294;28;20604;-76
2021/01/09 01:06:21;;;;;;;0.80;0.80;;;;;;;21.45;37.87;101460.78;5017694;28;20184;-76
2021/01/09 01:08:47;;;;;;;0.83;0.83;;;;;;;21.44;37.89;101459.06;5017282;28;20200;-67
2021/01/09 01:11:22;;;;;;;0.90;0.90;;;;;;;21.44;37.91;101465.38;5051292;28;20206;-67
2021/01/09 01:13:48;;;;;;;0.80;0.80;;;;;;;21.42;37.73;101463.84;5033745;28;20584;-67
2021/01/09 01:16:14;;;;;;;0.90;0.90;;;;;;;21.39;37.85;101453.28;5033817;28;20199;-67
2021/01/09 01:18:40;;;;;;;0.90;0.90;;;;;;;21.38;37.75;101457.03;5051236;28;20182;-67
2021/01/09 01:21:06;;;;;;;0.80;0.80;;;;;;;21.36;37.78;101450.91;5051109;28;20192;-68
2021/01/09 01:23:32;;;;;;;0.93;0.93;;;;;;;21.32;37.79;101457.72;5033489;28;20614;-68
2021/01/09 01:25:58;;;;;;;0.70;0.70;;;;;;;21.29;37.90;101463.47;5017164;28;20207;-67
2021/01/09 01:28:25;;;;;;;1.00;1.00;;;;;;;21.29;37.80;101471.66;5051041;28;20204;-75
2021/01/09 01:30:51;;;;;;;0.80;0.80;;;;;;;21.28;37.56;101478.13;5033698;28;20591;-68
2021/01/09 01:33:17;;;;;;;1.03;1.03;;;;;;;21.28;37.90;101473.50;5017064;28;20383;-66
2021/01/09 01:35:43;;;;;;;0.70;0.70;;;;;;;21.30;37.88;101476.09;5051012;28;20785;-67
2021/01/09 01:38:09;;;;;;;1.00;1.00;;;;;;;21.28;37.82;101481.69;5033678;28;20176;-67
2021/01/09 01:40:35;;;;;;;1.00;1.00;;;;;;;21.31;37.81;101485.97;5051096;28;20180;-66
2021/01/09 01:43:01;;;;;;;0.73;0.73;;;;;;;21.31;37.88;101484.09;5052184;28;20521;-67
2021/01/09 01:45:27;;;;;;;0.90;0.90;;;;;;;21.33;38.07;101490.22;5037278;28;20224;-67
2021/01/09 01:47:53;;;;;;;0.90;0.90;;;;;;;21.33;37.80;101487.50;5020897;28;20204;-67
2021/01/09 01:50:19;;;;;;;0.70;0.70;;;;;;;21.35;38.06;101493.63;5021091;28;20185;-68
2021/01/09 01:52:45;;;;;;;0.90;0.90;;;;;;;21.37;37.87;101505.22;5037254;28;20181;-68
2021/01/09 01:55:11;;;;;;;0.90;0.90;;;;;;;21.39;38.13;101497.72;5020640;28;20204;-68
2021/01/09 01:57:37;;;;;;;0.90;0.90;;;;;;;21.41;37.82;101508.44;5037096;28;20203;-64
2021/01/09 02:00:05;;;;;;;0.90;0.90;;;;;;;21.43;38.00;101500.97;5020392;28;20226;-64
2021/01/09 02:02:31;;;;;;;0.90;0.90;;;;;;;21.43;38.00;101507.25;5004297;28;20215;-68
2021/01/09 02:05:00;;;;;;;0.80;0.80;;;;;;;21.43;38.03;101504.53;5054260;28;20215;-68
2021/01/09 02:07:26;;;;;;;0.90;0.90;;;;;;;21.43;37.59;101509.97;5004392;28;20257;-76
2021/01/09 02:09:52;;;;;;;0.90;0.90;;;;;;;21.44;37.73;101522.56;5004102;28;20220;-76
2021/01/09 02:12:31;;;;;;;1.00;1.00;;;;;;;21.45;37.89;101520.69;5037066;28;20245;-76
2021/01/09 02:14:57;;;;;;;0.87;0.87;;;;;;;21.44;37.46;101516.28;5038653;28;20212;-67
2021/01/09 02:17:23;;;;;;;0.80;0.80;;;;;;;21.43;37.70;101525.47;5037029;28;20273;-67
2021/01/09 02:19:49;;;;;;;1.00;1.00;;;;;;;21.42;37.46;101518.31;5036909;28;20195;-67
2021/01/09 02:22:17;;;;;;;1.00;1.00;;;;;;;21.40;37.47;101520.38;5036941;28;20579;-67
2021/01/09 02:24:44;;;;;;;1.00;1.00;;;;;;;21.38;37.61;101533.28;5036848;28;20219;-67
2021/01/09 02:27:10;;;;;;;0.87;0.87;;;;;;;21.36;37.55;101529.88;5004039;28;20221;-67
2021/01/09 02:29:55;;;;;;;0.90;0.90;;;;;;;21.35;37.61;101522.75;5036507;28;20651;-67
2021/01/09 02:32:25;;;;;;;1.20;1.10;;;;;;;21.36;37.64;101527.16;5039441;28;20190;-67
2021/01/09 02:34:55;;;;;;;0.97;0.93;;;;;;;21.35;37.91;101522.75;5021088;28;20231;-67
2021/01/09 02:37:21;;;;;;;0.80;0.80;;;;;;;21.34;38.00;101529.22;5048853;28;20271;-67
2021/01/09 02:39:48;;;;;;;0.83;0.83;;;;;;;21.34;37.72;101526.47;5019735;28;20196;-67
2021/01/09 02:42:14;;;;;;;1.13;0.87;;;;;;;21.35;37.87;101528.19;5020025;28;20286;-67
2021/01/09 02:44:40;;;;;;;0.80;0.80;;;;;;;21.36;37.72;101524.44;5020004;28;20689;-67
2021/01/09 02:47:06;;;;;;;0.70;0.70;;;;;;;21.37;37.98;101532.44;5019993;28;20188;-76
2021/01/09 02:49:32;;;;;;;0.90;0.90;;;;;;;21.39;38.10;101533.13;5019699;28;20644;-76
2021/01/09 02:51:58;;;;;;;0.80;0.80;;;;;;;21.40;37.77;101536.72;5019737;28;20216;-76
2021/01/09 02:54:24;;;;;;;0.80;0.80;;;;;;;21.40;37.77;101533.97;5019304;28;20258;-76
2021/01/09 02:56:50;;;;;;;0.73;0.73;;;;;;;21.41;37.92;101532.97;5019752;28;20188;-76
2021/01/09 02:59:16;;;;;;;0.80;0.80;;;;;;;21.41;37.78;101541.97;5019849;28;20184;-76
2021/01/09 03:01:42;;;;;;;0.90;0.90;;;;;;;21.42;37.71;101535.50;5053577;28;20283;-76
2021/01/09 03:04:08;;;;;;;0.83;0.83;;;;;;;21.42;37.65;101532.78;5019356;28;20223;-76
2021/01/09 03:06:35;;;;;;;0.80;0.80;;;;;;;21.42;37.55;101529.22;5035932;28;20267;-75
2021/01/09 03:09:01;;;;;;;0.77;0.77;;;;;;;21.41;37.73;101531.09;5036067;28;20516;-64
2021/01/09 03:11:28;;;;;;;0.80;0.80;;;;;;;21.40;37.42;101528.53;5035844;28;20180;-64
2021/01/09 03:13:54;;;;;;;1.00;0.90;;;;;;;21.39;37.77;101524.09;5053092;28;20206;-64
2021/01/09 03:16:20;;;;;;;0.90;0.90;;;;;;;21.38;37.68;101522.41;5019160;28;20199;-64
2021/01/09 03:18:46;;;;;;;0.93;0.90;;;;;;;21.37;37.69;101528.88;5019133;28;20191;-68
2021/01/09 03:21:12;;;;;;;0.93;0.80;;;;;;;21.37;37.56;101528.88;5053382;28;20246;-66
2021/01/09 03:23:38;;;;;;;0.80;0.80;;;;;;;21.37;37.77;101531.59;5053504;28;20200;-64
2021/01/09 03:26:04;;;;;;;0.80;0.80;;;;;;;21.36;37.85;101530.75;5035898;28;20584;-75
2021/01/09 03:28:30;;;;;;;0.80;0.80;;;;;;;21.36;37.50;101535.34;5035521;28;20208;-68
2021/01/09 03:30:56;;;;;;;0.80;0.80;;;;;;;21.35;37.58;101534.50;5035933;28;20195;-68
2021/01/09 03:33:23;;;;;;;0.80;0.80;;;;;;;21.35;37.77;101531.75;5053071;28;20528;-68
2021/01/09 03:35:49;;;;;;;1.07;0.97;;;;;;;21.37;37.75;101537.03;5052986;28;20275;-68
2021/01/09 03:38:15;;;;;;;0.80;0.80;;;;;;;21.38;37.98;101538.75;5052868;28;20191;-68
2021/01/09 03:40:41;;;;;;;0.80;0.80;;;;;;;21.39;38.04;101540.44;5052610;28;20586;-69
2021/01/09 03:43:07;;;;;;;0.80;0.80;;;;;;;21.40;37.84;101534.84;5052673;28;20180;-68
2021/01/09 03:45:33;;;;;;;0.83;0.77;;;;;;;21.43;38.12;101536.38;5035203;28;20207;-68
2021/01/09 03:47:59;;;;;;;0.80;0.80;;;;;;;21.44;37.99;101532.63;5035056;28;20602;-68
2021/01/09 03:50:25;;;;;;;0.70;0.70;;;;;;;21.45;37.84;101534.31;5035070;28;20184;-68
2021/01/09 03:52:51;;;;;;;0.80;0.80;;;;;;;21.47;38.01;101532.28;5052336;28;20199;-68
2021/01/09 03:55:17;;;;;;;1.00;1.00;;;;;;;21.49;37.87;101540.28;5052287;28;20204;-68
2021/01/09 03:57:43;;;;;;;0.90;0.90;;;;;;;21.49;37.91;101532.97;5052506;28;20697;-69
2021/01/09 04:00:10;;;;;;;0.80;0.80;;;;;;;21.51;37.67;101530.06;5018502;28;20188;-68
2021/01/09 04:02:36;;;;;;;0.70;0.70;;;;;;;21.50;37.68;101534.66;5034928;28;20838;-68
2021/01/09 04:05:02;;;;;;;0.87;0.87;;;;;;;21.50;37.87;101528.38;5018521;28;20227;-76
2021/01/09 04:07:28;;;;;;;0.77;0.77;;;;;;;21.47;37.54;101526.84;5034117;28;20613;-76
2021/01/09 04:09:54;;;;;;;0.90;0.90;;;;;;;21.45;37.56;101528.88;5002052;28;20310;-76
2021/01/09 04:12:20;;;;;;;1.10;1.10;;;;;;;21.42;37.72;101534.66;5034874;28;20230;-68
2021/01/09 04:14:46;;;;;;;0.80;0.80;;;;;;;21.40;37.80;101539.44;5052143;28;20283;-68
2021/01/09 04:17:12;;;;;;;0.93;0.93;;;;;;;21.37;37.66;101532.44;5052083;28;20195;-68
2021/01/09 04:19:38;;;;;;;0.73;0.73;;;;;;;21.34;37.60;101535.50;5052019;28;20180;-67
2021/01/09 04:22:04;;;;;;;0.73;0.73;;;;;;;21.34;37.67;101538.22;5052091;28;20635;-68
2021/01/09 04:24:31;;;;;;;0.80;0.80;;;;;;;21.32;37.51;101540.28;5051917;28;20236;-68
2021/01/09 04:26:58;;;;;;;0.70;0.70;;;;;;;21.32;37.53;101544.88;5051909;28;20215;-68
2021/01/09 04:29:24;;;;;;;0.70;0.70;;;;;;;21.32;37.60;101547.59;5017832;28;20302;-68
2021/01/09 04:31:50;;;;;;;0.80;0.80;;;;;;;21.30;37.68;101545.03;5034404;28;20226;-68
2021/01/09 04:34:17;;;;;;;0.90;0.90;;;;;;;21.30;37.89;101542.31;5034276;28;20697;-68
2021/01/09 04:36:43;;;;;;;0.87;0.87;;;;;;;21.32;37.75;101542.13;5034423;28;20215;-68
2021/01/09 04:39:09;;;;;;;0.73;0.73;;;;;;;21.33;37.66;101546.56;5034380;28;20184;-68
2021/01/09 04:41:36;;;;;;;0.80;0.80;;;;;;;21.33;37.92;101536.53;5034229;28;20192;-68
2021/01/09 04:44:06;;;;;;;0.70;0.70;;;;;;;21.35;37.77;101542.66;5051803;28;20227;-68
2021/01/09 04:46:53;;;;;;;0.73;0.73;;;;;;;21.40;38.13;101542.16;5035070;28;20241;-76
2021/01/09 04:49:21;;;;;;;0.77;0.77;;;;;;;21.41;38.17;101541.13;5034188;28;20211;-76
2021/01/09 04:51:47;;;;;;;0.90;0.90;;;;;;;21.42;38.09;101548.28;5017812;28;20183;-76
2021/01/09 04:54:17;;;;;;;0.70;0.70;;;;;;;21.45;37.90;101553.38;5051511;28;20649;-68
2021/01/09 04:56:45;;;;;;;1.00;1.00;;;;;;;21.46;37.75;101546.94;5051539;28;20579;-68
2021/01/09 04:59:15;;;;;;;0.90;0.90;;;;;;;21.48;37.95;101553.06;5051575;28;20187;-67
2021/01/09 05:01:41;;;;;;;0.90;0.90;;;;;;;21.49;37.72;101551.19;5018268;28;20279;-68
2021/01/09 05:04:07;;;;;;;0.70;0.70;;;;;;;21.50;37.86;101548.28;5051120;28;20653;-69
2021/01/09 05:06:33;;;;;;;0.90;0.90;;;;;;;21.50;37.64;101552.88;5033755;28;20674;-68
2021/01/09 05:08:59;;;;;;;0.90;0.90;;;;;;;21.50;37.62;101555.59;5033786;28;20269;-68
2021/01/09 05:11:25;;;;;;;0.90;0.90;;;;;;;21.46;37.60;101552.38;5051344;28;20188;-68
2021/01/09 05:13:51;;;;;;;0.80;0.80;;;;;;;21.45;37.74;101553.38;5017609;28;20287;-65
2021/01/09 05:16:18;;;;;;;0.80;0.80;;;;;;;21.42;37.46;101556.44;5017488;28;20199;-65
2021/01/09 05:18:44;;;;;;;0.80;0.80;;;;;;;21.39;37.43;101563.09;5019805;28;20187;-65
2021/01/09 05:21:12;;;;;;;0.77;0.77;;;;;;;21.35;37.61;101567.16;5005241;28;20318;-65
2021/01/09 05:23:57;;;;;;;0.87;0.87;;;;;;;21.36;37.72;101565.28;5022364;28;20239;-65
2021/01/09 05:26:23;;;;;;;0.73;0.73;;;;;;;21.34;37.72;101557.28;5038104;28;20184;-65
2021/01/09 05:28:54;;;;;;;0.90;0.90;;;;;;;21.35;37.71;101566.31;5004864;28;20322;-65
2021/01/09 05:31:23;;;;;;;0.77;0.77;;;;;;;21.32;37.69;101566.66;5005046;28;20191;-65
2021/01/09 05:33:50;;;;;;;0.77;0.77;;;;;;;21.32;37.69;101572.09;5022036;28;20216;-65
2021/01/09 05:36:16;;;;;;;0.97;0.97;;;;;;;21.32;37.90;101574.81;5037875;28;20798;-65
2021/01/09 05:38:43;;;;;;;0.90;0.90;;;;;;;21.34;37.85;101576.34;5021386;28;20208;-65
2021/01/09 05:41:11;;;;;;;0.70;0.70;;;;;;;21.35;37.89;101586.22;5037442;28;20226;-65
2021/01/09 05:43:37;;;;;;;0.70;0.70;;;;;;;21.37;38.13;101588.78;5020986;28;20216;-65
2021/01/09 05:46:04;;;;;;;0.80;0.80;;;;;;;21.38;38.15;101585.91;5037496;28;20275;-65
2021/01/09 05:48:31;;;;;;;1.00;1.00;;;;;;;21.41;37.93;101582.84;5021031;28;20208;-65
2021/01/09 05:50:57;;;;;;;0.87;0.87;;;;;;;21.42;37.81;101583.69;5004710;28;20189;-65
2021/01/09 05:53:42;;;;;;;0.77;0.77;;;;;;;21.46;37.69;101585.06;5021127;28;20192;-77
2021/01/09 05:56:13;;;;;;;0.80;0.80;;;;;;;21.46;37.81;101593.22;5020946;28;20631;-68
2021/01/09 05:58:39;;;;;;;0.80;0.80;;;;;;;21.46;37.81;101585.06;5021228;28;20207;-69
2021/01/09 06:01:10;;;;;;;1.10;0.90;;;;;;;21.48;37.66;101593.91;5037586;28;20206;-69
2021/01/09 06:03:40;;;;;;;0.77;0.77;;;;;;;21.48;37.87;101593.91;5037518;28;20210;-69
2021/01/09 06:06:08;;;;;;;0.80;0.80;;;;;;;21.44;37.49;101596.13;5020827;28;20183;-69
2021/01/09 06:08:34;;;;;;;0.97;0.97;;;;;;;21.43;37.74;101596.28;5037048;28;20257;-69
2021/01/09 06:11:04;;;;;;;0.83;0.83;;;;;;;21.42;37.44;101597.31;5020636;28;20184;-69
2021/01/09 06:13:31;;;;;;;0.70;0.70;;;;;;;21.40;37.81;101597.47;5020799;28;20191;-69
2021/01/09 06:16:05;;;;;;;0.80;0.80;;;;;;;21.41;37.44;101603.78;5020766;28;20180;-69
2021/01/09 06:18:31;;;;;;;0.93;0.93;;;;;;;21.40;37.48;101604.78;5037489;28;20199;-69
2021/01/09 06:20:57;;;;;;;0.83;0.83;;;;;;;21.39;37.51;101605.81;5036797;28;20211;-68
2021/01/09 06:23:24;;;;;;;0.90;0.90;;;;;;;21.39;37.45;101608.53;5020308;28;20274;-69
2021/01/09 06:25:51;;;;;;;0.73;0.73;;;;;;;21.39;37.71;101608.53;5020378;28;20701;-68
2021/01/09 06:28:17;;;;;;;1.00;1.00;;;;;;;21.36;37.46;101617.91;5020615;28;20204;-69
2021/01/09 06:30:43;;;;;;;0.90;0.90;;;;;;;21.37;37.63;101614.16;5019499;28;20219;-69
2021/01/09 06:33:14;;;;;;;0.80;0.80;;;;;;;21.37;37.76;101619.59;5004043;28;20203;-69
2021/01/09 06:35:41;;;;;;;0.90;0.90;;;;;;;21.37;38.03;101619.59;5037106;28;20523;-68
2021/01/09 06:38:07;;;;;;;0.90;0.90;;;;;;;21.40;38.02;101623.84;5020231;28;20837;-65
2021/01/09 06:40:33;;;;;;;1.07;1.00;;;;;;;21.41;38.00;101626.41;5020363;28;20180;-65
2021/01/09 06:42:59;;;;;;;0.80;0.80;;;;;;;21.42;37.72;101624.53;5020206;28;20263;-67
2021/01/09 06:45:25;;;;;;;0.93;0.93;;;;;;;21.43;37.95;101631.69;5019915;28;20207;-69
2021/01/09 06:48:00;;;;;;;0.80;0.80;;;;;;;21.44;37.42;101636.13;5019661;28;20276;-69
2021/01/09 06:50:26;;;;;;;1.03;1.03;;;;;;;21.42;37.64;101633.56;5036278;28;20199;-69
2021/01/09 06:52:56;;;;;;;0.80;0.80;;;;;;;21.44;37.81;101655.19;5053810;28;20192;-69
2021/01/09 06:55:37;;;;;;;1.00;0.90;;;;;;;21.44;37.75;101650.59;5036180;28;20774;-65
2021/01/09 06:58:04;;;;;;;0.83;0.83;;;;;;;21.42;37.54;101657.22;5053546;28;20184;-65
2021/01/09 07:00:30;;;;;;;0.90;0.90;;;;;;;21.40;37.68;101656.53;5019626;28;20200;-65
2021/01/09 07:03:13;;;;;;;0.70;0.70;;;;;;;21.40;37.34;101667.44;5019771;28;20195;-65
2021/01/09 07:05:49;;;;;;;1.00;1.00;;;;;;;21.37;37.54;101660.44;5019657;28;20258;-65
2021/01/09 07:08:20;;;;;;;0.93;0.93;;;;;;;21.38;37.37;101662.16;5020215;28;20266;-65
2021/01/09 07:10:56;;;;;;;0.80;0.80;;;;;;;21.37;37.54;101657.72;5035936;28;20585;-65
2021/01/09 07:13:23;;;;;;;0.87;0.87;;;;;;;21.35;37.36;101664.34;5019656;28;20192;-65
2021/01/09 07:16:10;;;;;;;0.80;0.80;;;;;;;21.34;37.65;101663.50;5003014;28;20278;-65
2021/01/09 07:18:49;;;;;;;0.80;0.80;;;;;;;21.35;37.52;101665.22;5021702;28;20555;-65
2021/01/09 07:21:20;;;;;;;0.70;0.70;;;;;;;21.34;37.58;101657.22;5035901;28;20571;-65
2021/01/09 07:23:53;;;;;;;0.80;0.80;;;;;;;21.35;37.69;101656.19;5003251;28;20300;-66
2021/01/09 07:26:19;;;;;;;0.90;0.90;;;;;;;21.34;37.62;101659.94;5019080;28;20279;-65
2021/01/09 07:28:46;;;;;;;0.90;0.90;;;;;;;21.35;37.73;101669.81;5019069;28;20247;-65
2021/01/09 07:31:13;;;;;;;0.80;0.80;;;;;;;21.36;38.07;101668.78;5035650;28;20184;-64
2021/01/09 07:33:41;;;;;;;0.73;0.73;;;;;;;21.37;38.06;101673.22;5019331;28;20200;-64
2021/01/09 07:36:07;;;;;;;0.90;0.90;;;;;;;21.39;37.84;101671.19;5002643;28;20204;-64
2021/01/09 07:38:33;;;;;;;0.80;0.80;;;;;;;21.41;37.84;101680.03;5053019;28;20199;-64
2021/01/09 07:41:05;;;;;;;0.80;0.80;;;;;;;21.43;38.03;101689.75;5018901;28;20196;-65
2021/01/09 07:43:47;;;;;;;0.83;0.83;;;;;;;21.47;37.67;101687.56;5004075;28;20632;-64
2021/01/09 07:46:29;;;;;;;1.00;1.00;;;;;;;21.49;37.72;101681.94;5019913;28;20184;-64
2021/01/09 07:49:02;;;;;;;1.00;1.00;;;;;;;21.50;37.95;101684.50;5018863;28;20602;-64
2021/01/09 07:51:48;;;;;;;0.90;0.90;;;;;;;21.50;37.60;101684.50;5035215;28;20245;-64
2021/01/09 07:54:36;;;;;;;0.87;0.87;;;;;;;21.49;37.76;101682.78;5018621;28;20212;-64
2021/01/09 07:57:17;;;;;;;0.90;0.90;;;;;;;21.48;37.55;101681.09;5035533;28;20263;-64
2021/01/09 08:00:05;;;;;;;0.90;0.90;;;;;;;21.45;37.53;101684.13;5052634;28;20634;-64
2021/01/09 08:02:38;;;;;;;1.17;1.07;;;;;;;21.40;37.67;101678.34;5052636;28;20195;-64
2021/01/09 08:05:11;;;;;;;0.90;0.90;;;;;;;21.37;37.77;101676.78;5018435;28;20285;-64
2021/01/09 08:07:45;;;;;;;1.00;1.00;;;;;;;21.38;37.60;101683.94;5052646;28;20185;-64
2021/01/09 08:10:21;;;;;;;0.80;0.80;;;;;;;21.40;37.65;101683.78;5003354;28;20226;-64
2021/01/09 08:12:56;;;;;;;1.00;1.00;;;;;;;21.39;37.71;101684.78;5044069;28;20187;-65
2021/01/09 08:15:22;;;;;;;0.90;0.90;;;;;;;21.37;37.50;101684.13;5034619;28;20227;-65
2021/01/09 08:17:49;;;;;;;0.90;0.90;;;;;;;21.35;37.76;101684.28;5052084;28;20620;-65
2021/01/09 08:20:16;;;;;;;1.00;1.00;;;;;;;21.36;37.76;101690.56;5018597;28;20242;-65
2021/01/09 08:22:55;;;;;;;0.97;0.97;;;;;;;21.37;37.34;101692.28;5018543;28;20287;-65
2021/01/09 08:25:22;;;;;;;1.00;0.90;;;;;;;21.35;37.56;101689.72;5018397;28;20644;-65
2021/01/09 08:27:52;;;;;;;0.80;0.80;;;;;;;21.37;37.87;101695.00;5017540;28;20534;-65
2021/01/09 08:30:20;;;;;;;0.93;0.93;;;;;;;21.36;37.86;101699.59;5051454;28;20183;-65
2021/01/09 08:32:46;;;;;;;0.93;0.93;;;;;;;21.37;37.89;101701.31;5017682;28;20612;-77
2021/01/09 08:35:12;;;;;;;0.90;0.90;;;;;;;21.39;37.87;101714.75;5034376;28;20291;-77
2021/01/09 08:37:39;;;;;;;0.70;0.70;;;;;;;21.40;37.94;101721.91;5059208;28;20188;-76
2021/01/09 08:40:18;;;;;;;0.80;0.80;;;;;;;21.44;37.88;101728.75;5034807;28;20804;-77
2021/01/09 08:42:54;;;;;;;0.77;0.77;;;;;;;;;;5068052;28;20195;-76
2021/01/09 08:45:41;;;;;;;0.90;0.90;;;;;;;21.46;37.84;101737.59;5052185;28;20214;-76
2021/01/09 08:48:17;;;;;;;0.87;0.87;;;;;;;21.46;37.57;101732.16;5049956;28;20632;-77
2021/01/09 08:50:48;;;;;;;0.60;0.60;;;;;;;21.47;37.46;101739.31;5067424;28;20195;-76
2021/01/09 08:53:15;;;;;;;0.90;0.90;;;;;;;21.44;37.66;101739.63;5049515;28;20208;-76
2021/01/09 08:55:41;;;;;;;0.90;0.90;;;;;;;21.43;37.52;101743.38;5042564;28;20184;-76
2021/01/09 08:58:09;;;;;;;1.17;1.10;;;;;;;21.41;37.62;101737.25;5034470;28;20184;-77
2021/01/09 09:00:35;;;;;;;1.00;1.00;;;;;;;21.37;37.35;101746.75;5034739;28;20281;-76
2021/01/09 09:03:01;;;;;;;0.97;0.97;;;;;;;21.34;37.41;101749.81;5050970;28;20184;-76
2021/01/09 09:05:27;;;;;;;1.00;1.00;;;;;;;21.34;37.52;101752.53;5050692;28;20227;-77
2021/01/09 09:07:56;;;;;;;0.90;0.90;;;;;;;21.35;37.65;101751.50;5034028;28;20188;-76
2021/01/09 09:10:24;;;;;;;0.90;0.90;;;;;;;21.35;37.42;101756.97;5034103;28;20203;-77
2021/01/09 09:12:52;;;;;;;1.00;1.00;;;;;;;21.32;37.41;101751.84;5067486;28;20271;-76
2021/01/09 09:15:31;;;;;;;0.90;0.90;;;;;;;21.33;37.57;101759.84;5066885;28;20212;-76
2021/01/09 09:17:57;;;;;;;1.10;1.10;;;;;;;21.31;37.83;101759.16;5043038;28;20202;-68
2021/01/09 09:20:26;;;;;;;0.70;0.70;;;;;;;21.34;37.53;101768.88;5048333;28;20183;-68
2021/01/09 09:22:52;;;;;;;1.00;1.00;;;;;;;21.33;37.84;101764.44;5051071;28;20192;-68
2021/01/09 09:25:25;;;;;;;0.90;0.90;;;;;;;21.37;37.86;101765.81;5050356;28;20282;-69
2021/01/09 09:28:01;;;;;;;0.80;0.80;;;;;;;21.37;37.87;101766.69;5050207;28;20199;-68
2021/01/09 09:30:27;;;;;;;0.90;0.90;;;;;;;21.38;38.04;101773.81;5067086;28;20196;-68
2021/01/09 09:32:53;;;;;;;0.90;0.90;;;;;;;21.40;37.79;101771.78;5051254;28;20195;-68
2021/01/09 09:35:29;;;;;;;0.90;0.90;;;;;;;21.42;37.59;101771.63;5067090;28;20207;-68
2021/01/09 09:37:56;;;;;;;0.83;0.83;;;;;;;21.43;38.03;101781.50;5067284;28;20237;-68
2021/01/09 09:40:22;;;;;;;5.20;4.80;;;;;;;21.41;33.80;101778.94;5050215;28;20207;-74
2021/01/09 09:42:48;;;;;;;5.90;5.40;;;;;;;21.31;31.39;101785.53;5067211;28;20212;-74
2021/01/09 09:45:14;;;;;;;5.40;5.00;;;;;;;21.10;31.37;101775.81;5033379;28;20219;-69
2021/01/09 09:47:47;;;;;;;5.30;4.90;;;;;;;20.94;32.91;101777.56;5066802;28;20184;-65
2021/01/09 09:50:23;;;;;;;4.83;4.43;;;;;;;20.80;33.91;101785.25;5049750;28;20583;-65
2021/01/09 09:53:00;;;;;;;4.47;4.10;;;;;;;20.77;34.73;101779.28;5031986;28;20536;-65
2021/01/09 09:55:26;;;;;;;4.53;4.13;;;;;;;20.72;34.27;101782.47;5033145;28;20218;-65
2021/01/09 09:58:08;;;;;;;4.03;3.73;;;;;;;20.73;34.78;101781.44;5049787;28;20250;-65
2021/01/09 10:00:44;;;;;;;3.70;3.50;;;;;;;20.73;34.98;101788.75;5049821;28;20188;-65
2021/01/09 10:03:10;;;;;;;4.17;3.87;;;;;;;20.72;35.36;101795.22;5051012;28;20184;-65
2021/01/09 10:05:36;;;;;;;3.70;3.40;;;;;;;20.73;35.53;101797.78;5051722;28;20220;-65
2021/01/09 10:08:10;;;;;;;3.30;3.10;;;;;;;20.76;35.57;101793.88;5053471;28;20212;-65
2021/01/09 10:10:36;;;;;;;3.30;3.00;;;;;;;20.78;35.78;101800.03;5053470;28;20196;-65
2021/01/09 10:13:02;;;;;;;3.10;2.90;;;;;;;20.80;35.63;101800.72;5070324;28;20196;-65
2021/01/09 10:15:28;;;;;;;3.30;3.10;;;;;;;20.83;36.06;101797.72;5036800;28;20239;-65
2021/01/09 10:17:55;;;;;;;3.10;2.90;;;;;;;20.86;35.97;101805.56;5053390;28;20189;-65
2021/01/09 10:20:21;;;;;;;2.60;2.50;;;;;;;20.89;36.12;101794.38;5036583;28;20196;-66
2021/01/09 10:22:47;;;;;;;2.97;2.77;;;;;;;20.92;36.39;101795.91;5036273;28;20189;-65
2021/01/09 10:25:14;;;;;;;3.00;2.73;;;;;;;20.96;36.39;101797.31;5053116;28;20596;-65
2021/01/09 10:27:40;;;;;;;2.90;2.70;;;;;;;20.99;36.43;101796.97;5053366;28;20279;-76
2021/01/09 10:30:07;;;;;;;2.80;2.60;;;;;;;21.02;36.46;101783.91;5069840;28;20362;-69
2021/01/09 10:32:33;;;;;;;2.67;2.47;;;;;;;21.06;36.71;101790.78;5052862;28;20192;-71
2021/01/09 10:35:05;;;;;;;2.77;2.47;;;;;;;21.11;36.78;101790.28;5052765;28;20286;-66
2021/01/09 10:37:31;;;;;;;2.70;2.50;;;;;;;21.13;36.77;101791.84;5053203;28;20172;-65
2021/01/09 10:39:57;;;;;;;2.60;2.40;;;;;;;21.18;36.80;101795.94;5052988;28;20636;-67
2021/01/09 10:42:23;;;;;;;2.40;2.20;;;;;;;21.23;36.89;101785.44;5036464;28;20279;-63
2021/01/09 10:44:49;;;;;;;2.50;2.30;;;;;;;21.27;36.87;101786.84;5069598;28;20220;-66
2021/01/09 10:47:15;;;;;;;2.40;2.30;;;;;;;21.30;36.90;101783.81;5052698;28;20609;-65
2021/01/09 10:49:41;;;;;;;2.47;2.37;;;;;;;21.35;37.14;101784.19;5069466;28;20233;-66
2021/01/09 10:52:07;;;;;;;2.40;2.20;;;;;;;21.38;36.90;101787.44;5069588;28;20203;-70
2021/01/09 10:54:33;;;;;;;2.40;2.20;;;;;;;21.44;37.15;101784.06;5036297;28;20244;-70
2021/01/09 10:56:59;;;;;;;2.97;2.23;;;;;;;21.50;37.17;101788.00;5053711;28;20640;-77
2021/01/09 10:59:25;;;;;;;2.50;2.30;;;;;;;21.55;37.41;101791.13;5052385;28;20246;-69
2021/01/09 11:01:55;;;;;;;2.70;2.50;;;;;;;21.58;37.47;101777.19;5053464;28;20718;-69
2021/01/09 11:04:21;;;;;;;3.57;2.60;;;;;;;21.62;37.44;101778.56;5051704;28;20632;-69
2021/01/09 11:06:47;;;;;;;2.83;2.60;;;;;;;21.67;37.21;101773.47;5053592;28;20195;-69
2021/01/09 11:09:13;;;;;;;3.97;2.60;;;;;;;21.70;37.04;101773.16;5053311;28;20307;-67
2021/01/09 11:11:39;;;;;;;2.63;2.43;;;;;;;21.73;37.18;101772.81;5052047;28;20613;-67
2021/01/09 11:14:05;;;;;;;3.10;2.80;;;;;;;21.77;37.35;101767.91;5041792;28;20299;-69
2021/01/09 11:16:31;;;;;;;4.53;3.00;;;;;;;21.65;37.89;101764.59;5059205;28;20415;-69
2021/01/09 11:18:57;;;;;;;3.07;2.40;;;;;;;21.79;37.74;101765.03;5060660;28;20192;-67
2021/01/09 11:21:23;;;;;;;5.10;2.90;;;;;;;21.87;37.89;101767.78;5035740;28;20578;-69
2021/01/09 11:23:50;;;;;;;4.90;2.77;;;;;;;21.94;38.12;101766.94;5053031;28;20204;-67
2021/01/09 11:26:23;;;;;;;3.77;2.70;;;;;;;22.01;38.11;101765.28;5053137;28;20184;-75
2021/01/09 11:28:50;;;;;;;4.07;3.10;;;;;;;22.07;38.33;101766.53;5019301;28;20714;-66
2021/01/09 11:31:16;;;;;;;3.53;2.77;;;;;;;22.11;38.38;101765.16;5053028;28;20624;-66